Time;durP1;ratioP1;P1;durP2;ratioP2;P2;SDS_P1;SDS_P2;PMS_P1;PMS_P2;Temp;Humidity;BMP_temperature;BMP_pressure;BME280_temperature;BME280_humidity;BME280_pressure;Samples;Min_cycle;Max_cycle;Signal;HPM_P1;HPM_P2
2022/10/03 00:03:02;;;;;;;9.13;3.70;;;;;;;10.06;100.00;97095.28;1848562;77;20879;-55
2022/10/03 00:05:37;;;;;;;8.98;3.27;;;;;;;10.07;100.00;97090.18;1809679;77;21029;-57
2022/10/03 00:08:39;;;;;;;7.37;3.70;;;;;;;10.05;100.00;97093.72;1836664;77;21282;-55
2022/10/03 00:11:16;;;;;;;6.40;3.47;;;;;;;10.02;100.00;97083.63;1846239;77;20994;-56
2022/10/03 00:14:24;;;;;;;7.83;3.47;;;;;;;9.98;100.00;97084.00;1810589;77;21447;-56
2022/10/03 00:17:16;;;;;;;11.48;4.28;;;;;;;9.96;100.00;97074.16;1838454;77;20881;-56
2022/10/03 00:19:59;;;;;;;11.30;4.33;;;;;;;9.92;100.00;97081.20;1847578;77;20971;-56
2022/10/03 00:23:06;;;;;;;9.08;3.50;;;;;;;9.90;100.00;97072.70;1830386;77;21746;-56
2022/10/03 00:26:26;;;;;;;9.78;3.58;;;;;;;9.87;100.00;97062.64;1843061;77;20943;-56
2022/10/03 00:28:48;;;;;;;8.10;4.37;;;;;;;9.85;100.00;97067.48;1837637;77;20884;-56
2022/10/03 00:31:24;;;;;;;9.28;4.25;;;;;;;9.77;100.00;97064.23;1849063;77;20957;-56
2022/10/03 00:34:02;;;;;;;7.40;3.60;;;;;;;9.72;100.00;97052.33;1844278;77;20914;-57
2022/10/03 00:36:44;;;;;;;8.15;3.77;;;;;;;9.69;100.00;97054.27;1832548;77;21246;-57
2022/10/03 00:39:32;;;;;;;8.43;3.98;;;;;;;9.68;100.00;97056.72;1846951;77;20876;-55
2022/10/03 00:42:16;;;;;;;8.13;4.55;;;;;;;9.66;100.00;97047.64;1835488;77;20943;-56
2022/10/03 00:45:33;;;;;;;9.08;4.28;;;;;;;9.63;100.00;97048.28;1844436;77;21001;-56
2022/10/03 00:48:31;;;;;;;8.20;4.58;;;;;;;9.59;100.00;97048.09;1840017;77;20861;-55
2022/10/03 00:51:12;;;;;;;12.47;4.78;;;;;;;9.55;100.00;97045.80;1840026;77;21034;-56
2022/10/03 00:53:56;;;;;;;8.23;4.42;;;;;;;9.52;100.00;97043.72;1848607;77;20899;-56
2022/10/03 00:57:03;;;;;;;10.23;4.03;;;;;;;9.49;100.00;97045.66;1844402;77;20896;-56
2022/10/03 01:00:05;;;;;;;11.45;4.75;;;;;;;9.46;100.00;97040.95;1837906;77;20912;-56
2022/10/03 01:03:13;;;;;;;10.58;4.90;;;;;;;9.45;100.00;97047.38;1846393;77;20907;-55
2022/10/03 01:06:32;;;;;;;9.35;4.62;;;;;;;9.47;100.00;97043.84;1844382;77;20895;-56
2022/10/03 01:09:30;;;;;;;8.43;4.20;;;;;;;9.45;100.00;97031.88;1800249;79;20971;-55
2022/10/03 01:12:12;;;;;;;14.68;5.20;;;;;;;9.45;100.00;97035.34;1845863;77;21423;-56
2022/10/03 01:14:56;;;;;;;9.70;5.05;;;;;;;9.41;100.00;97037.06;1839882;77;20989;-56
2022/10/03 01:17:50;;;;;;;10.75;4.97;;;;;;;9.39;100.00;97031.23;1835541;77;20995;-56
2022/10/03 01:20:34;;;;;;;9.43;4.30;;;;;;;9.39;100.00;97020.55;1834030;77;21240;-55
2022/10/03 01:23:24;;;;;;;7.70;4.20;;;;;;;9.39;100.00;97023.22;1804893;78;21409;-55
2022/10/03 01:26:20;;;;;;;8.78;4.97;;;;;;;9.40;100.00;97023.44;1798944;78;20919;-56
2022/10/03 01:32:14;;;;;;;8.70;3.95;;;;;;;9.39;100.00;97012.53;1771980;80;21079;-56
2022/10/03 01:34:53;;;;;;;10.28;4.55;;;;;;;9.37;100.00;97017.36;1804580;79;21872;-56
2022/10/03 01:37:50;;;;;;;8.68;4.20;;;;;;;9.38;100.00;97025.63;1775827;79;20880;-56
2022/10/03 01:40:36;;;;;;;9.95;4.15;;;;;;;9.41;100.00;97020.23;1836224;77;20951;-56
2022/10/03 01:43:10;;;;;;;8.80;4.30;;;;;;;9.41;100.00;97010.33;1834525;77;20888;-56
2022/10/03 01:46:20;;;;;;;9.53;4.37;;;;;;;9.43;100.00;97016.16;1836443;77;21427;-56
2022/10/03 01:49:20;;;;;;;6.83;3.90;;;;;;;9.47;100.00;97014.44;1846441;77;21106;-56
2022/10/03 01:52:12;;;;;;;8.50;4.28;;;;;;;9.47;100.00;97013.64;1850518;77;20889;-56
2022/10/03 01:55:16;;;;;;;10.40;4.17;;;;;;;9.50;100.00;97020.52;1844038;77;20923;-57
2022/10/03 01:58:03;;;;;;;9.80;4.12;;;;;;;9.48;100.00;97022.72;1849172;77;20923;-56
2022/10/03 02:00:48;;;;;;;8.15;4.00;;;;;;;9.47;100.00;97022.46;1844521;77;20959;-55
2022/10/03 02:03:29;;;;;;;5.72;3.95;;;;;;;9.51;100.00;97025.33;1844951;77;21276;-55
2022/10/03 02:06:26;;;;;;;8.70;4.50;;;;;;;9.52;100.00;97026.34;1842139;77;20915;-55
2022/10/03 02:09:31;;;;;;;9.85;4.37;;;;;;;9.50;100.00;97029.88;1833030;77;20884;-56
2022/10/03 02:12:13;;;;;;;9.18;3.75;;;;;;;9.49;100.00;97022.94;1856529;77;20916;-55
2022/10/03 02:15:03;;;;;;;9.05;4.83;;;;;;;9.46;100.00;97020.90;1842496;77;20941;-56
2022/10/03 02:17:57;;;;;;;11.85;4.00;;;;;;;9.47;100.00;97016.31;1773899;77;21858;-57
2022/10/03 02:20:46;;;;;;;6.92;3.80;;;;;;;9.47;100.00;97026.47;1849001;77;20856;-56
2022/10/03 02:23:33;;;;;;;9.43;4.35;;;;;;;9.51;100.00;97025.33;1849158;77;20896;-55
2022/10/03 02:26:21;;;;;;;9.98;4.40;;;;;;;9.51;100.00;97031.47;1839873;77;21534;-55
2022/10/03 02:29:20;;;;;;;7.92;3.92;;;;;;;9.53;100.00;97021.25;1842010;77;20967;-55
2022/10/03 02:32:26;;;;;;;8.43;4.17;;;;;;;9.53;100.00;97017.78;1848980;77;21113;-55
2022/10/03 02:35:15;;;;;;;7.47;4.50;;;;;;;9.53;100.00;97019.92;1849173;77;20903;-55
2022/10/03 02:38:16;;;;;;;8.08;4.17;;;;;;;9.57;100.00;97017.41;1844454;77;20833;-55
2022/10/03 02:41:25;;;;;;;7.75;4.12;;;;;;;9.55;100.00;97015.59;1844246;77;20870;-55
2022/10/03 02:44:17;;;;;;;9.93;3.50;;;;;;;9.55;100.00;97016.39;1839608;77;20956;-56
2022/10/03 02:47:01;;;;;;;8.53;4.50;;;;;;;9.55;100.00;97012.38;1849384;77;21064;-56
2022/10/03 02:49:56;;;;;;;6.62;3.70;;;;;;;9.53;100.00;97009.22;1837217;77;20927;-56
2022/10/03 02:52:51;;;;;;;7.22;3.40;;;;;;;9.54;100.00;97008.66;1835829;77;20903;-56
2022/10/03 02:55:39;;;;;;;7.10;4.12;;;;;;;9.58;100.00;97004.29;1847263;77;20877;-56
2022/10/03 02:58:36;;;;;;;9.15;4.58;;;;;;;9.58;100.00;96999.74;1837627;77;21070;-56
2022/10/03 03:01:40;;;;;;;6.62;3.60;;;;;;;9.57;100.00;97000.83;1804014;77;21296;-56
2022/10/03 03:04:36;;;;;;;5.33;3.83;;;;;;;9.57;100.00;96994.69;1838311;77;20962;-56
2022/10/03 03:07:35;;;;;;;8.10;4.45;;;;;;;9.55;100.00;96989.66;1847667;77;20872;-56
2022/10/03 03:10:32;;;;;;;9.15;4.55;;;;;;;9.56;100.00;96992.55;1844176;77;20835;-56
2022/10/03 03:13:34;;;;;;;8.23;4.00;;;;;;;9.57;100.00;96994.14;1838020;77;20828;-56
2022/10/03 03:16:39;;;;;;;7.10;3.27;;;;;;;9.57;100.00;96988.80;1849094;77;21864;-56
2022/10/03 03:19:20;;;;;;;5.72;3.83;;;;;;;9.55;100.00;97000.34;1837441;77;20903;-55
2022/10/03 03:22:23;;;;;;;5.47;3.10;;;;;;;9.50;100.00;96988.98;1848995;77;20967;-55
2022/10/03 03:25:27;;;;;;;7.53;3.25;;;;;;;9.45;100.00;96992.58;1849138;77;20876;-55
2022/10/03 03:28:12;;;;;;;5.35;3.22;;;;;;;9.40;100.00;96983.89;1841248;77;20916;-56
2022/10/03 03:31:00;;;;;;;7.58;3.55;;;;;;;9.37;100.00;96989.30;1837261;77;21294;-55
2022/10/03 03:34:01;;;;;;;9.85;3.33;;;;;;;9.34;100.00;96985.92;1804902;78;21521;-55
2022/10/03 03:36:42;;;;;;;6.03;3.02;;;;;;;9.31;100.00;96995.88;1803821;79;20956;-56
2022/10/03 03:39:49;;;;;;;4.78;2.67;;;;;;;9.27;100.00;96989.58;1794493;79;20920;-56
2022/10/03 03:42:28;;;;;;;4.17;2.65;;;;;;;9.26;100.00;96990.66;1831637;77;20971;-55
2022/10/03 03:45:50;;;;;;;4.45;2.37;;;;;;;9.25;100.00;96998.45;1847440;77;21216;-55
2022/10/03 03:49:01;;;;;;;4.45;2.27;;;;;;;9.23;100.00;96992.59;1842209;77;20975;-55
2022/10/03 03:52:01;;;;;;;5.87;2.58;;;;;;;9.22;100.00;96991.03;1835989;77;20966;-55
2022/10/03 03:54:53;;;;;;;4.45;2.15;;;;;;;9.20;100.00;96985.21;1839186;77;20900;-55
2022/10/03 03:57:51;;;;;;;4.03;2.10;;;;;;;9.18;100.00;96979.39;1817380;77;21351;-56
2022/10/03 04:00:20;;;;;;;6.22;2.12;;;;;;;9.18;100.00;96973.25;1839847;77;21199;-56
2022/10/03 04:03:17;;;;;;;4.22;2.45;;;;;;;9.17;100.00;96974.33;1844429;77;20924;-56
2022/10/03 04:06:18;;;;;;;4.10;2.40;;;;;;;9.16;100.00;96971.44;1843091;77;20868;-57
2022/10/03 04:09:20;;;;;;;7.62;2.33;;;;;;;9.13;100.00;96970.16;1836372;77;20932;-55
2022/10/03 04:12:08;;;;;;;5.20;2.00;;;;;;;9.12;100.00;96956.55;1805869;78;21501;-57
2022/10/03 04:15:01;;;;;;;4.08;2.20;;;;;;;9.14;100.00;96957.03;1810291;78;21111;-55
2022/10/03 04:21:16;;;;;;;5.37;2.40;;;;;;;9.18;100.00;96955.34;1796975;79;21016;-55
2022/10/03 04:24:20;;;;;;;2.92;2.15;;;;;;;9.17;100.00;96964.98;1809080;79;20909;-56
2022/10/03 04:27:25;;;;;;;3.87;2.47;;;;;;;9.17;100.00;96955.62;1808895;79;21067;-55
2022/10/03 04:30:13;;;;;;;3.12;2.00;;;;;;;9.18;100.00;96967.37;1788096;78;21785;-56
2022/10/03 04:33:02;;;;;;;4.85;2.30;;;;;;;9.17;100.00;96964.98;1766427;78;20848;-56
2022/10/03 04:36:11;;;;;;;5.28;2.00;;;;;;;9.18;100.00;96964.70;1799728;79;21451;-56
2022/10/03 04:38:56;;;;;;;4.00;2.02;;;;;;;9.19;100.00;96967.59;1806879;79;21525;-57
2022/10/03 04:41:54;;;;;;;2.65;2.05;;;;;;;9.15;100.00;96965.84;1784391;78;20880;-55
2022/10/03 04:44:52;;;;;;;3.72;2.22;;;;;;;9.13;100.00;96965.36;1808149;78;21435;-57
2022/10/03 04:47:47;;;;;;;2.87;1.95;;;;;;;9.10;100.00;96966.75;1803066;78;20968;-57
2022/10/03 04:50:29;;;;;;;3.72;2.17;;;;;;;9.09;100.00;96956.39;1797641;79;25941;-57
2022/10/03 04:53:24;;;;;;;5.87;2.52;;;;;;;9.07;100.00;96957.24;1811299;78;21018;-57
2022/10/03 04:56:05;;;;;;;5.87;2.35;;;;;;;9.06;100.00;96964.45;1802996;79;21014;-55
2022/10/03 04:58:38;;;;;;;6.55;2.12;;;;;;;9.07;100.00;96962.02;1804348;79;21240;-56
2022/10/03 05:01:16;;;;;;;6.62;2.10;;;;;;;9.06;100.00;96951.64;1807702;79;21007;-55
2022/10/03 05:04:19;;;;;;;7.12;2.75;;;;;;;9.07;100.00;96956.67;1801797;79;21014;-56
2022/10/03 05:07:12;;;;;;;4.72;2.37;;;;;;;9.11;100.00;96950.98;1787621;79;20979;-56
2022/10/03 05:09:59;;;;;;;4.03;2.35;;;;;;;9.16;100.00;96955.41;1773413;80;21055;-56
2022/10/03 05:13:00;;;;;;;4.85;2.37;;;;;;;9.17;100.00;96956.42;1761819;80;21681;-57
2022/10/03 05:15:32;;;;;;;5.87;3.15;;;;;;;9.17;100.00;96940.39;1841224;77;20955;-57
2022/10/03 05:18:24;;;;;;;5.55;2.65;;;;;;;9.17;100.00;96951.08;1819833;77;21376;-57
2022/10/03 05:20:59;;;;;;;5.47;2.20;;;;;;;9.17;100.00;96952.95;1810014;78;21016;-56
2022/10/03 05:23:48;;;;;;;5.62;2.60;;;;;;;9.15;100.00;96959.95;1818542;78;20912;-56
2022/10/03 05:26:34;;;;;;;5.22;2.60;;;;;;;9.16;100.00;96956.17;1777101;79;21502;-57
2022/10/03 05:29:14;;;;;;;4.72;2.35;;;;;;;9.16;100.00;96966.86;1814615;79;21044;-56
2022/10/03 05:31:47;;;;;;;3.27;2.10;;;;;;;9.16;100.00;96958.08;1771848;77;21057;-55
2022/10/03 05:34:58;;;;;;;5.40;2.55;;;;;;;9.14;100.00;96954.92;1815577;78;21098;-56
2022/10/03 05:38:07;;;;;;;2.90;2.15;;;;;;;9.16;100.00;96952.16;1814546;78;21090;-56
2022/10/03 05:40:38;;;;;;;5.75;2.85;;;;;;;9.22;100.00;96954.97;1817321;78;21178;-56
2022/10/03 05:43:34;;;;;;;5.17;2.22;;;;;;;9.26;100.00;96961.81;1821305;78;20955;-55
2022/10/03 05:46:14;;;;;;;7.47;2.33;;;;;;;9.22;100.00;96961.64;1818537;78;20900;-55
2022/10/03 05:48:52;;;;;;;5.10;2.20;;;;;;;9.16;100.00;96968.19;1815835;79;20927;-56
2022/10/03 05:51:38;;;;;;;4.42;2.30;;;;;;;9.12;100.00;96959.22;1817658;77;20888;-55
2022/10/03 05:54:26;;;;;;;4.40;2.27;;;;;;;9.11;100.00;96968.88;1836248;77;21164;-57
2022/10/03 05:57:27;;;;;;;5.78;2.67;;;;;;;9.11;100.00;96965.67;1832682;77;20884;-57
2022/10/03 06:00:20;;;;;;;4.30;2.40;;;;;;;9.11;100.00;96973.69;1824720;77;21404;-55
2022/10/03 06:03:19;;;;;;;5.95;2.40;;;;;;;9.12;100.00;96965.90;1827135;77;21046;-56
2022/10/03 06:06:07;;;;;;;7.03;2.90;;;;;;;9.10;100.00;96972.09;1815117;77;21062;-55
2022/10/03 06:08:47;;;;;;;7.37;2.72;;;;;;;9.09;100.00;96971.84;1833100;77;21453;-56
2022/10/03 06:11:52;;;;;;;5.58;2.60;;;;;;;9.08;100.00;96952.13;1832805;77;21057;-56
2022/10/03 06:14:38;;;;;;;6.60;2.50;;;;;;;9.11;100.00;96954.98;1770105;79;21089;-56
2022/10/03 06:17:49;;;;;;;7.42;2.60;;;;;;;9.15;100.00;96961.29;1818638;77;21014;-56
2022/10/03 06:20:37;;;;;;;4.70;2.45;;;;;;;9.20;100.00;96961.70;1818533;77;21070;-57
2022/10/03 06:23:33;;;;;;;6.45;2.33;;;;;;;9.24;100.00;96955.44;1823642;77;21271;-56
2022/10/03 06:26:58;;;;;;;5.55;2.65;;;;;;;9.24;100.00;96959.45;1828236;77;21051;-56
2022/10/03 06:29:37;;;;;;;8.93;3.00;;;;;;;9.23;100.00;96955.19;1818141;77;21075;-58
2022/10/03 06:32:34;;;;;;;8.65;2.35;;;;;;;9.23;100.00;96963.78;1819520;77;21081;-60
2022/10/03 06:35:25;;;;;;;5.28;2.30;;;;;;;9.22;100.00;96963.52;1819901;77;21142;-57
2022/10/03 06:38:26;;;;;;;10.68;2.65;;;;;;;9.23;100.00;96973.89;1817222;77;21196;-56
2022/10/03 06:41:16;;;;;;;5.40;2.52;;;;;;;9.29;100.00;96976.70;1818819;77;21549;-57
2022/10/03 06:43:58;;;;;;;6.97;2.45;;;;;;;9.36;100.00;96972.25;1820623;77;21417;-56
2022/10/03 06:47:00;;;;;;;8.98;2.70;;;;;;;9.46;100.00;96954.08;1825338;77;21103;-58
2022/10/03 06:49:52;;;;;;;6.33;2.52;;;;;;;9.56;100.00;96955.13;1818707;77;21084;-57
2022/10/03 06:53:08;;;;;;;4.50;2.30;;;;;;;9.61;100.00;96966.23;1810932;77;21225;-57
2022/10/03 06:56:09;;;;;;;9.13;2.80;;;;;;;9.64;100.00;96966.95;1832649;77;21121;-59
2022/10/03 06:59:19;;;;;;;5.30;2.15;;;;;;;9.68;100.00;96959.13;1816499;77;21060;-54
2022/10/03 07:02:07;;;;;;;8.18;2.80;;;;;;;9.75;100.00;96955.45;1740896;80;21620;-56
2022/10/03 07:05:06;;;;;;;10.13;2.70;;;;;;;9.75;100.00;96963.47;1802457;78;20979;-57
2022/10/03 07:08:06;;;;;;;10.10;2.30;;;;;;;9.78;100.00;96970.86;1822335;77;21762;-55
2022/10/03 07:11:04;;;;;;;7.78;2.25;;;;;;;9.75;100.00;96970.16;1736434;82;21187;-56
2022/10/03 07:14:08;;;;;;;5.72;2.40;;;;;;;9.70;100.00;96970.30;1758284;80;21665;-56
2022/10/03 07:16:47;;;;;;;4.65;2.00;;;;;;;9.64;100.00;96973.64;1796176;79;20900;-56
2022/10/03 07:19:42;;;;;;;8.23;2.50;;;;;;;9.58;100.00;96977.02;1809970;77;21053;-56
2022/10/03 07:22:24;;;;;;;7.67;2.60;;;;;;;9.58;100.00;96970.88;1817708;77;21229;-58
2022/10/03 07:25:30;;;;;;;6.85;2.70;;;;;;;9.55;100.00;96974.16;1813018;77;21055;-57
2022/10/03 07:28:21;;;;;;;5.53;2.05;;;;;;;9.51;100.00;96972.66;1817374;77;21018;-58
2022/10/03 07:31:26;;;;;;;6.67;2.70;;;;;;;9.51;100.00;96961.97;1823910;77;21058;-56
2022/10/03 07:34:31;;;;;;;6.37;2.00;;;;;;;9.59;100.00;96969.22;1822666;77;21071;-58
2022/10/03 07:40:35;;;;;;;7.17;2.20;;;;;;;9.67;100.00;96959.66;1768603;80;21095;-55
2022/10/03 07:43:46;;;;;;;5.87;2.60;;;;;;;9.77;100.00;96969.30;1763339;80;21021;-58
2022/10/03 07:46:47;;;;;;;5.87;2.40;;;;;;;9.86;100.00;96964.77;1750432;80;21322;-56
2022/10/03 07:49:41;;;;;;;6.05;2.65;;;;;;;9.95;99.81;96966.91;1773177;80;21070;-57
2022/10/03 07:52:52;;;;;;;6.12;2.40;;;;;;;10.07;99.90;96964.44;1725708;81;21178;-55
2022/10/03 07:56:07;;;;;;;6.80;2.47;;;;;;;10.16;98.95;96970.62;1816256;77;21029;-56
2022/10/03 07:59:03;;;;;;;5.37;2.00;;;;;;;10.18;98.01;96958.51;1814567;77;21407;-56
2022/10/03 08:01:35;;;;;;;7.65;2.20;;;;;;;10.24;96.54;96957.81;1808507;77;20988;-57
2022/10/03 08:04:37;;;;;;;5.12;1.75;;;;;;;10.33;96.50;96956.48;1814857;77;21233;-56
2022/10/03 08:07:39;;;;;;;4.03;1.52;;;;;;;10.45;96.61;96950.76;1813581;77;21209;-58
2022/10/03 08:10:35;;;;;;;6.33;1.80;;;;;;;10.69;95.92;96951.06;1807268;77;21074;-60
2022/10/03 08:13:42;;;;;;;3.55;1.67;;;;;;;10.89;93.43;96951.78;1824509;77;21064;-56
2022/10/03 08:16:45;;;;;;;4.83;2.10;;;;;;;11.04;91.77;96959.09;1817198;77;21046;-60
2022/10/03 08:19:50;;;;;;;3.85;1.77;;;;;;;11.16;89.60;96949.30;1819052;77;21075;-59
2022/10/03 08:22:53;;;;;;;4.97;1.60;;;;;;;11.11;87.93;96956.17;1813829;78;21237;-57
2022/10/03 08:25:43;;;;;;;5.22;2.05;;;;;;;11.00;88.25;96944.98;1833418;77;21386;-58
2022/10/03 08:28:58;;;;;;;4.45;2.37;;;;;;;10.92;88.25;96941.77;1815408;77;20999;-57
2022/10/03 08:35:06;;;;;;;4.70;1.95;;;;;;;10.89;89.11;96938.38;1824465;77;21174;-57
2022/10/03 08:38:26;;;;;;;6.40;2.20;;;;;;;10.93;89.73;96947.89;1839116;77;20987;-57
2022/10/03 08:41:50;;;;;;;3.95;2.08;;;;;;;10.97;89.60;96936.80;1809809;78;21346;-57
2022/10/03 08:44:57;;;;;;;;;;;;;;;10.90;88.92;96946.64;1813442;77;20973;-57
2022/10/03 08:47:58;;;;;;;4.70;2.12;;;;;;;10.70;88.32;96951.31;1814659;78;20140;-57
2022/10/03 08:50:53;;;;;;;5.72;1.95;;;;;;;10.51;89.03;96941.45;1758006;77;21051;-56
2022/10/03 08:54:08;;;;;;;3.22;1.57;;;;;;;10.44;89.82;96943.81;1829295;77;21045;-58
2022/10/03 08:57:15;;;;;;;4.50;2.08;;;;;;;10.42;90.50;96941.22;1827517;77;21694;-57
2022/10/03 09:00:20;;;;;;;5.70;2.12;;;;;;;10.44;90.98;96942.48;1754897;80;21432;-59
2022/10/03 09:03:33;;;;;;;7.15;1.85;;;;;;;10.49;91.53;96934.84;1733279;81;21105;-53
2022/10/03 09:06:23;;;;;;;4.65;1.80;;;;;;;10.57;91.45;96933.52;1748787;80;21102;-60
2022/10/03 09:09:47;;;;;;;4.78;1.80;;;;;;;10.64;90.67;96937.86;1726662;81;21074;-59
2022/10/03 09:12:59;;;;;;;6.47;2.00;;;;;;;10.67;89.75;96935.86;1729653;81;21554;-58
2022/10/03 09:16:41;;;;;;;3.95;2.00;;;;;;;10.72;90.58;96933.58;1758027;77;21010;-59
2022/10/03 09:20:04;;;;;;;2.87;1.52;;;;;;;10.77;90.87;96932.88;1803714;77;21109;-57
2022/10/03 09:23:37;;;;;;;3.22;1.50;;;;;;;10.86;90.50;96928.29;1812204;77;20908;-58
2022/10/03 09:26:47;;;;;;;4.00;1.67;;;;;;;10.98;89.73;96923.08;1779829;78;21106;-57
2022/10/03 09:29:56;;;;;;;2.85;1.80;;;;;;;11.07;88.67;96927.65;1821031;77;20931;-58
2022/10/03 09:33:06;;;;;;;6.72;4.75;;;;;;;11.11;88.96;96917.86;1808731;77;21304;-59
2022/10/03 09:36:09;;;;;;;5.58;2.33;;;;;;;11.20;89.63;96926.66;1791430;77;21077;-59
2022/10/03 09:39:15;;;;;;;4.47;1.45;;;;;;;11.25;88.91;96917.11;1803671;77;21070;-58
2022/10/03 09:42:05;;;;;;;6.80;1.82;;;;;;;11.18;89.36;96919.49;1819082;77;21185;-58
2022/10/03 09:45:43;;;;;;;4.50;1.37;;;;;;;11.04;89.21;96905.50;1794311;77;20932;-58
2022/10/03 09:48:46;;;;;;;3.95;1.67;;;;;;;10.97;89.20;96936.23;1823218;77;20875;-58
2022/10/03 09:51:55;;;;;;;4.47;1.62;;;;;;;10.87;88.98;96915.14;1821946;77;20861;-59
2022/10/03 09:55:26;;;;;;;3.58;1.50;;;;;;;10.96;89.15;96917.80;1809976;77;20975;-59
2022/10/03 09:58:38;;;;;;;2.50;1.42;;;;;;;11.25;89.07;96910.41;1819588;77;20906;-58
2022/10/03 10:01:36;;;;;;;4.15;1.82;;;;;;;11.53;87.73;96923.64;1829760;77;20868;-58
2022/10/03 10:04:31;;;;;;;3.05;1.80;;;;;;;11.60;87.76;96900.58;1809158;79;20975;-57
2022/10/03 10:07:53;;;;;;;3.85;1.82;;;;;;;11.63;87.83;96894.55;1779463;78;21449;-58
2022/10/03 10:11:12;;;;;;;2.50;1.37;;;;;;;11.62;87.53;96888.97;1804701;77;20975;-59
2022/10/03 10:14:34;;;;;;;4.67;1.62;;;;;;;11.62;87.48;96884.16;1809677;78;21045;-58
2022/10/03 10:17:18;;;;;;;3.17;1.50;;;;;;;11.57;88.07;96885.67;1799936;78;21272;-58
2022/10/03 10:20:15;;;;;;;2.77;1.30;;;;;;;11.44;89.86;96888.03;1824979;77;21014;-57
2022/10/03 10:23:36;;;;;;;2.50;1.30;;;;;;;11.22;91.78;96901.66;1826803;77;20912;-58
2022/10/03 10:26:55;;;;;;;;;;;;;;;10.99;93.23;96912.61;1836061;77;21085;-59
2022/10/03 10:30:10;;;;;;;2.80;1.30;;;;;;;10.87;94.63;96899.62;1845274;77;20190;-58
2022/10/03 10:33:14;;;;;;;4.65;1.55;;;;;;;10.94;95.70;96902.59;1848250;77;20963;-56
2022/10/03 10:36:34;;;;;;;4.22;1.42;;;;;;;11.02;96.06;96907.71;1848828;77;20887;-59
2022/10/03 10:39:45;;;;;;;12.20;1.50;;;;;;;10.98;95.95;96896.83;1848257;77;21891;-58
2022/10/03 10:43:22;;;;;;;3.98;1.15;;;;;;;10.96;94.85;96890.46;1820985;77;21346;-57
2022/10/03 10:46:24;;;;;;;4.25;1.30;;;;;;;10.93;95.33;96892.98;1844551;77;21508;-58
2022/10/03 10:49:59;;;;;;;3.00;1.15;;;;;;;10.89;94.97;96897.41;1818148;78;21086;-58
2022/10/03 10:53:31;;;;;;;2.83;1.40;;;;;;;10.92;95.17;96886.86;1818870;79;20904;-57
2022/10/03 10:56:28;;;;;;;3.65;1.10;;;;;;;10.94;94.70;96883.30;1818983;79;20896;-62
2022/10/03 10:59:41;;;;;;;2.67;1.25;;;;;;;10.94;94.95;96877.15;1763720;81;21082;-60
2022/10/03 11:02:57;;;;;;;2.55;1.05;;;;;;;10.96;94.23;96889.67;1752197;80;21221;-57
2022/10/03 11:06:23;;;;;;;3.10;1.00;;;;;;;10.83;94.80;96881.28;1816140;77;20961;-59
2022/10/03 11:09:49;;;;;;;1.92;1.02;;;;;;;10.70;96.36;96874.98;1772265;79;20960;-57
2022/10/03 11:13:09;;;;;;;2.27;1.20;;;;;;;10.57;97.63;96892.02;1738673;81;21055;-61
2022/10/03 11:16:24;;;;;;;1.15;0.90;;;;;;;10.44;98.10;96891.62;1760857;81;20933;-56
2022/10/03 11:19:30;;;;;;;1.47;0.90;;;;;;;10.37;99.11;96885.95;1753828;81;20938;-57
2022/10/03 11:22:45;;;;;;;3.00;1.00;;;;;;;10.31;99.70;96883.20;1765412;80;20944;-58
2022/10/03 11:26:22;;;;;;;1.70;0.90;;;;;;;10.29;100.00;96886.75;1800280;79;20915;-60
2022/10/03 11:29:41;;;;;;;4.37;2.02;;;;;;;10.38;100.00;96880.05;1815790;77;20984;-57
2022/10/03 11:33:08;;;;;;;1.20;0.90;;;;;;;10.40;100.00;96873.83;1807493;77;20934;-59
2022/10/03 11:36:33;;;;;;;1.35;0.90;;;;;;;10.48;100.00;96865.78;1821466;77;20824;-57
2022/10/03 11:39:36;;;;;;;2.75;1.00;;;;;;;10.46;100.00;96873.34;1848528;77;20888;-58
2022/10/03 11:42:42;;;;;;;1.30;0.90;;;;;;;10.45;100.00;96873.12;1818344;77;21501;-58
2022/10/03 11:45:52;;;;;;;1.80;0.70;;;;;;;10.40;100.00;96865.80;1814147;78;20951;-57
2022/10/03 11:48:52;;;;;;;1.57;0.70;;;;;;;10.34;100.00;96860.37;1807617;79;20963;-56
2022/10/03 11:51:49;;;;;;;2.52;0.80;;;;;;;10.32;100.00;96863.35;1815772;79;21232;-58
2022/10/03 11:54:37;;;;;;;1.40;0.90;;;;;;;10.30;100.00;96864.22;1823461;77;20931;-56
2022/10/03 11:57:29;;;;;;;1.40;0.90;;;;;;;10.26;100.00;96861.95;1848209;77;20911;-55
2022/10/03 12:00:04;;;;;;;2.00;1.00;;;;;;;10.26;100.00;96882.02;1841610;77;21101;-58
2022/10/03 12:02:58;;;;;;;1.00;0.80;;;;;;;10.24;100.00;96870.27;1833056;77;21002;-58
2022/10/03 12:05:44;;;;;;;1.42;1.25;;;;;;;10.26;100.00;96860.61;1810689;77;21331;-60
2022/10/03 12:11:49;;;;;;;1.67;1.00;;;;;;;10.29;100.00;96851.38;1836474;77;20080;-58
2022/10/03 12:14:35;;;;;;;1.67;1.10;;;;;;;10.39;100.00;96848.94;1826012;77;21081;-59
2022/10/03 12:17:15;;;;;;;2.42;1.32;;;;;;;10.43;100.00;96861.95;1827513;77;20911;-60
2022/10/03 12:20:21;;;;;;;1.60;1.10;;;;;;;10.48;100.00;96861.77;1824425;77;21278;-60
2022/10/03 12:23:06;;;;;;;1.82;0.90;;;;;;;10.46;100.00;96855.18;1820518;77;20948;-57
2022/10/03 12:25:35;;;;;;;1.27;1.15;;;;;;;10.42;100.00;96863.04;1816012;77;21107;-57
2022/10/03 12:28:23;;;;;;;3.45;0.98;;;;;;;10.41;100.00;96850.75;1822813;77;21012;-60
2022/10/03 12:31:34;;;;;;;5.30;1.20;;;;;;;10.38;100.00;96855.41;1814062;77;21075;-61
2022/10/03 12:34:32;;;;;;;3.12;1.10;;;;;;;10.35;100.00;96852.02;1813425;77;21578;-59
2022/10/03 12:37:11;;;;;;;1.85;1.30;;;;;;;10.32;100.00;96856.66;1835133;78;20923;-60
2022/10/03 12:40:14;;;;;;;1.67;1.47;;;;;;;10.28;100.00;96844.48;1835393;78;20877;-57
2022/10/03 12:42:57;;;;;;;2.52;1.32;;;;;;;10.26;100.00;96844.01;1835349;78;21051;-57
2022/10/03 12:45:44;;;;;;;3.37;1.40;;;;;;;10.25;100.00;96830.92;1835562;77;20936;-58
2022/10/03 12:48:50;;;;;;;1.92;1.30;;;;;;;10.23;100.00;96822.42;1792684;79;21112;-60
2022/10/03 12:51:43;;;;;;;4.17;1.30;;;;;;;10.24;100.00;96828.03;1841083;77;21007;-59
2022/10/03 12:54:48;;;;;;;5.05;0.98;;;;;;;10.27;100.00;96829.50;1840984;78;21541;-59
2022/10/03 12:58:03;;;;;;;12.75;1.27;;;;;;;10.24;100.00;96822.67;1841195;78;20940;-57
2022/10/03 13:00:48;;;;;;;1.55;1.05;;;;;;;10.19;100.00;96821.49;1816220;77;20939;-56
2022/10/03 13:03:57;;;;;;;4.33;1.10;;;;;;;10.14;100.00;96829.67;1815790;79;21121;-57
2022/10/03 13:07:01;;;;;;;1.67;0.88;;;;;;;10.12;100.00;96826.53;1745573;82;21580;-60
2022/10/03 13:10:13;;;;;;;3.58;1.12;;;;;;;10.07;100.00;96833.34;1815543;79;21353;-58
2022/10/03 13:13:00;;;;;;;1.60;0.70;;;;;;;10.08;100.00;96832.25;1815716;79;21446;-59
2022/10/03 13:16:15;;;;;;;3.10;0.95;;;;;;;10.07;100.00;96845.37;1816073;79;20948;-57
2022/10/03 13:19:11;;;;;;;3.00;1.30;;;;;;;10.05;100.00;96836.88;1823827;77;21819;-57
2022/10/03 13:22:07;;;;;;;1.55;1.10;;;;;;;10.01;100.00;96838.63;1815785;79;20861;-59
2022/10/03 13:25:17;;;;;;;1.35;1.10;;;;;;;9.99;100.00;96832.77;1814604;78;20991;-58
2022/10/03 13:28:15;;;;;;;1.82;1.20;;;;;;;10.01;100.00;96839.38;1840905;77;21062;-57
2022/10/03 13:30:56;;;;;;;4.58;2.80;;;;;;;10.05;100.00;96836.88;1788372;78;21274;-59
2022/10/03 13:33:41;;;;;;;3.85;1.52;;;;;;;10.08;100.00;96820.98;1848447;77;21619;-58
2022/10/03 13:36:33;;;;;;;5.28;1.10;;;;;;;10.12;100.00;96813.15;1819197;77;20877;-56
2022/10/03 13:39:33;;;;;;;2.08;1.15;;;;;;;10.20;100.00;96825.18;1829470;78;20912;-59
2022/10/03 13:42:38;;;;;;;1.67;1.22;;;;;;;10.28;100.00;96819.59;1814774;77;20924;-57
2022/10/03 13:45:27;;;;;;;1.95;1.50;;;;;;;10.32;100.00;96817.09;1842996;77;21478;-59
2022/10/03 13:48:13;;;;;;;2.33;1.25;;;;;;;10.32;100.00;96823.20;1848211;77;21138;-59
2022/10/03 13:51:00;;;;;;;3.80;1.35;;;;;;;10.33;100.00;96808.73;1813205;78;20920;-58
2022/10/03 13:53:58;;;;;;;2.05;1.30;;;;;;;10.35;100.00;96803.84;1814401;79;21019;-59
2022/10/03 13:57:00;;;;;;;2.10;1.30;;;;;;;10.34;100.00;96799.58;1814552;79;21130;-59
2022/10/03 13:59:47;;;;;;;2.95;1.30;;;;;;;10.33;100.00;96807.94;1814181;79;21018;-58
2022/10/03 14:02:40;;;;;;;1.72;1.20;;;;;;;10.29;100.00;96813.16;1815756;78;21236;-58
2022/10/03 14:05:34;;;;;;;2.65;1.25;;;;;;;10.27;100.00;96809.98;1809989;79;20903;-58
2022/10/03 14:08:12;;;;;;;5.47;1.52;;;;;;;10.24;100.00;96809.30;1815018;79;20912;-57
2022/10/03 14:11:07;;;;;;;23.25;3.08;;;;;;;10.24;100.00;96802.60;1767613;79;21403;-58
2022/10/03 14:14:04;;;;;;;2.35;1.30;;;;;;;10.27;100.00;96801.95;1815194;78;21151;-57